Latest Coastal Weather Observations for Gladstone

IDQ60701

Issued at 4:01 am EST Tuesday 28 February 2017 (issued every 10 minutes, with the page automatically refreshed every 10 minutes)

About coastal observations | Map of coastal stations | Coastal observations for QLD | Marine services | Other Formats
Station Details ID: 039123 Name: GLADSTONE RADAR Lat: -23.86 Lon: 151.26 Height: 74.5 m
Data from the previous 72 hours. | See also: Recent months at Gladstone
Date/Time
EST
Temp
°C
Wind Pressure Rain since
9am
mm
Weather Cloud Vis
km
Sea
Height
m
Swell
Dir  Spd
kts
Gust
kts
hPa Trend Height
m
Period
s
Dir
28/04:00am 21.8 SE 8 13 1013.2 - 0.2 - - - - - - -
28/03:30am 22.0 SE 10 15 1013.3 - 0.2 - - - - - - -
28/03:00am 22.1 SSE 11 17 1013.3 - 0.2 - - - - - - -
28/02:30am 22.2 SE 10 14 1013.5 - 0.2 - - - - - - -
28/02:00am 22.4 SSE 10 15 1013.9 - 0.2 - - - - - - -
28/01:30am 22.4 SSE 10 15 1014.3 - 0.2 - - - - - - -
28/01:00am 22.7 SE 11 17 1014.6 - 0.2 - - - - - - -
28/12:30am 22.7 SSE 9 14 1014.7 - 0.2 - - - - - - -
28/12:00am 23.2 SSE 9 15 1015.0 - 0.2 - - - - - - -
 
Date/Time
EST
Temp
°C
Wind Pressure Rain since
9am
mm
Weather Cloud Vis
km
Sea
Height
m
Swell
Dir  Spd
kts
Gust
kts
hPa Trend Height
m
Period
s
Dir
27/11:30pm 23.3 SSE 9 14 1015.3 - 0.2 - - - - - - -
27/11:00pm 23.9 SE 9 13 1015.3 - 0.2 - - - - - - -
27/10:30pm 23.9 SE 9 12 1014.9 - 0.2 - - - - - - -
27/10:00pm 24.2 ESE 13 18 1014.9 - 0.2 - - - - - - -
27/09:30pm 24.7 ESE 11 21 1015.1 - 0.2 - - - - - - -
27/09:00pm 25.2 ESE 10 17 1015.0 - 0.2 - - - - - - -
27/08:30pm 25.5 ESE 13 19 1014.6 - 0.2 - - - - - - -
27/08:00pm 25.8 E 15 22 1014.2 - 0.2 - - - - - - -
27/07:30pm 25.8 ESE 16 23 1014.1 - 0.2 - - - - - - -
27/07:00pm 25.7 E 16 23 1013.9 - 0.2 - - - - - - -
27/06:30pm 25.8 E 16 23 1013.7 - 0.2 - - - - - - -
27/06:00pm 26.2 E 17 23 1013.2 - 0.2 - - - - - - -
27/05:30pm 26.4 E 16 24 1012.6 - 0.2 - - - - - - -
27/05:00pm 27.2 E 15 21 1012.3 - 0.2 - - - - - - -
27/04:30pm 27.1 ENE 15 21 1012.0 - 0.2 - - - - - - -
27/04:00pm 26.9 ENE 14 20 1012.0 - 0.2 - - - - - - -
27/03:30pm 27.7 ENE 15 20 1011.9 - 0.2 - - - - - - -
27/03:00pm 30.1 ENE 16 23 1012.2 - 0.2 - - - - - - -
27/02:30pm 29.8 ENE 15 22 1012.2 - 0.2 - - - - - - -
27/02:00pm 30.3 ENE 16 22 1012.2 - 0.2 - - - - - - -
27/01:30pm 31.2 ENE 15 21 1012.7 - 0.2 - - - - - - -
27/01:00pm 31.0 ENE 16 20 1013.4 - 0.2 - - - - - - -
27/12:30pm 31.5 ENE 13 19 1013.9 - 0.2 - - - - - - -
27/12:00pm 31.3 ENE 13 18 1014.2 - 0.2 - - - - - - -
27/11:30am 31.2 ENE 13 18 1014.5 - 0.2 - - - - - - -
27/11:00am 30.5 E 12 18 1014.7 - 0.2 - - - - - - -
27/10:30am 30.5 ESE 9 17 1014.9 - 0.2 - - - - - - -
27/10:00am 29.1 ESE 13 21 1015.1 - 0.2 - - - - - - -
27/09:30am 27.9 ESE 16 21 1015.0 - 0.2 - - - - - - -
27/09:00am 28.4 ESE 11 19 1015.2 - 0.0 - - - - - - -
27/08:30am 26.5 SE 12 19 1015.0 - 0.0 - - - - - - -
27/08:00am 25.8 SE 10 14 1014.9 - 0.0 - - - - - - -
27/07:30am 24.1 SE 9 15 1014.6 - 0.0 - - - - - - -
27/07:00am 24.1 SE 9 14 1014.4 - 0.0 - - - - - - -
27/06:30am 22.8 SSE 7 12 1013.9 - 0.0 - - - - - - -
27/06:00am 22.7 S 6 9 1013.7 - 0.0 - - - - - - -
27/05:30am 22.9 SSE 9 13 1013.7 - 0.0 - - - - - - -
27/05:00am 22.6 S 8 13 1013.5 - 0.0 - - - - - - -
27/04:30am 22.7 S 8 12 1013.3 - 0.0 - - - - - - -
27/04:00am 23.0 SSE 8 12 1013.3 - 0.0 - - - - - - -
27/03:30am 23.1 SSE 8 14 1013.4 - 0.0 - - - - - - -
27/03:00am 23.1 SSE 9 14 1013.2 - 0.0 - - - - - - -
27/02:30am 23.3 SE 10 15 1013.7 - 0.0 - - - - - - -
27/02:00am 23.2 SSE 8 13 1013.8 - 0.0 - - - - - - -
27/01:30am 23.1 SSE 9 14 1014.1 - 0.0 - - - - - - -
27/01:00am 23.1 SSE 10 14 1014.3 - 0.0 - - - - - - -
27/12:30am 22.8 SE 7 10 1014.3 - 0.0 - - - - - - -
27/12:00am 22.9 ESE 9 15 1014.7 - 0.0 - - - - - - -
 
Date/Time
EST
Temp
°C
Wind Pressure Rain since
9am
mm
Weather Cloud Vis
km
Sea
Height
m
Swell
Dir  Spd
kts
Gust
kts
hPa Trend Height
m
Period
s
Dir
26/11:40pm 25.4 SE 12 29 1014.6 - 0.0 - - - - - - -
26/11:30pm 25.5 SE 9 14 1014.5 - 0.0 - - - - - - -
26/11:00pm 26.1 ESE 13 19 1014.5 - 0.0 - - - - - - -
26/10:31pm 26.2 E 15 25 1014.1 - 0.0 - - - - - - -
26/10:30pm 26.2 E 14 25 1014.1 - 0.0 - - - - - - -
26/10:05pm 26.3 E 15 28 1013.9 - 0.0 - - - - - - -
26/10:00pm 26.3 E 15 23 1013.9 - 0.0 - - - - - - -
26/09:34pm 26.3 E 15 25 1013.8 - 0.0 - - - - - - -
26/09:30pm 26.4 E 17 25 1013.9 - 0.0 - - - - - - -
26/09:00pm 26.5 E 18 26 1013.9 - 0.0 - - - - - - -
26/08:47pm 26.5 E 16 26 1013.9 - 0.0 - - - - - - -
26/08:30pm 26.4 E 15 22 1013.9 - 0.0 - - - - - - -
26/08:13pm 26.6 E 15 25 1013.8 - 0.0 - - - - - - -
26/08:00pm 26.6 E 13 19 1013.8 - 0.0 - - - - - - -
26/07:35pm 26.5 E 16 26 1013.3 - 0.0 - - - - - - -
26/07:30pm 26.6 E 19 26 1013.2 - 0.0 - - - - - - -
26/07:08pm 26.6 E 17 27 1013.0 - 0.0 - - - - - - -
26/07:00pm 26.6 E 20 27 1012.6 - 0.0 - - - - - - -
26/06:30pm 26.4 E 20 26 1012.0 - 0.0 - - - - - - -
26/06:00pm 26.8 E 17 25 1011.9 - 0.0 - - - - - - -
26/05:33pm 27.3 ENE 16 26 1011.6 - 0.0 - - - - - - -
26/05:30pm 27.2 E 18 26 1011.5 - 0.0 - - - - - - -
26/05:00pm 27.9 ENE 18 24 1011.1 - 0.0 - - - - - - -
26/04:30pm 28.5 ENE 17 24 1011.0 - 0.0 - - - - - - -
26/04:00pm 29.4 ENE 15 21 1011.1 - 0.0 - - - - - - -
26/03:30pm 29.8 ENE 18 24 1011.0 - 0.0 - - - - - - -
26/03:00pm 30.2 ENE 16 22 1011.1 - 0.0 - - - - - - -
26/02:30pm 30.4 ENE 15 21 1011.3 - 0.0 - - - - - - -
26/02:00pm 30.8 ENE 16 22 1011.6 - 0.0 - - - - - - -
26/01:30pm 31.6 ENE 14 18 1012.0 - 0.0 - - - - - - -
26/01:00pm 31.5 ENE 14 19 1012.2 - 0.0 - - - - - - -
26/12:30pm 32.0 ENE 13 18 1012.7 - 0.0 - - - - - - -
26/12:00pm 32.2 ENE 13 19 1013.1 - 0.0 - - - - - - -
26/11:30am 31.4 ENE 13 19 1013.4 - 0.0 - - - - - - -
26/11:00am 30.3 E 14 20 1013.5 - 0.0 - - - - - - -
26/10:30am 30.5 ENE 14 19 1013.8 - 0.0 - - - - - - -
26/10:00am 30.1 E 11 18 1013.8 - 0.0 - - - - - - -
26/09:30am 28.7 SE 12 19 1014.2 - 0.0 - - - - - - -
26/09:00am 28.4 ESE 10 18 1014.0 - 0.0 - - - - - - -
26/08:30am 27.2 SE 9 20 1013.9 - 0.0 - - - - - - -
26/08:00am 26.7 SE 11 15 1013.7 - 0.0 - - - - - - -
26/07:30am 25.2 SSE 8 15 1013.8 - 0.0 - - - - - - -
26/07:00am 24.4 SE 8 15 1013.4 - 0.0 - - - - - - -
26/06:30am 23.4 SSE 7 13 1013.0 - 0.0 - - - - - - -
26/06:00am 22.7 SSE 8 13 1012.7 - 0.0 - - - - - - -
26/05:30am 22.7 SSE 8 12 1012.2 - 0.0 - - - - - - -
26/05:00am 22.8 SSE 8 11 1012.2 - 0.0 - - - - - - -
26/04:30am 22.9 SSE 8 13 1012.0 - 0.0 - - - - - - -
26/04:00am 23.0 SSE 8 12 1011.8 - 0.0 - - - - - - -
26/03:30am 23.1 SSE 8 11 1011.7 - 0.0 - - - - - - -
26/03:00am 23.2 SSE 7 12 1011.6 - 0.0 - - - - - - -
26/02:30am 23.4 S 8 13 1011.9 - 0.0 - - - - - - -
26/02:00am 23.4 S 7 10 1011.9 - 0.0 - - - - - - -
26/01:30am 23.8 S 7 11 1012.3 - 0.0 - - - - - - -
26/01:00am 24.2 S 8 11 1012.6 - 0.0 - - - - - - -
26/12:30am 24.5 ESE 9 14 1012.5 - 0.0 - - - - - - -
26/12:00am 24.8 SE 10 15 1013.1 - 0.0 - - - - - - -
 
Date/Time
EST
Temp
°C
Wind Pressure Rain since
9am
mm
Weather Cloud Vis
km
Sea
Height
m
Swell
Dir  Spd
kts
Gust
kts
hPa Trend Height
m
Period
s
Dir
25/11:30pm 25.0 SE 10 14 1013.5 - 0.0 - - - - - - -
25/11:00pm 25.2 SE 11 17 1013.8 - 0.0 - - - - - - -
25/10:30pm 25.3 SE 10 15 1013.8 - 0.0 - - - - - - -
25/10:00pm 25.6 ESE 10 15 1013.8 - 0.0 - - - - - - -
25/09:30pm 26.1 E 15 22 1013.7 - 0.0 - - - - - - -
25/09:00pm 26.0 E 16 22 1013.6 - 0.0 - - - - - - -
25/08:30pm 26.1 E 14 22 1013.3 - 0.0 - - - - - - -
25/08:00pm 26.2 E 15 23 1013.1 - 0.0 - - - - - - -
25/07:30pm 26.2 E 16 23 1012.7 - 0.0 - - - - - - -
25/07:00pm 26.3 E 14 21 1012.5 - 0.0 - - - - - - -
25/06:30pm 26.6 ENE 17 23 1011.9 - 0.0 - - - - - - -
25/06:00pm 27.0 ENE 15 22 1011.6 - 0.0 - - - - - - -
25/05:30pm 27.4 ENE 15 21 1011.4 - 0.0 - - - - - - -
25/05:00pm 28.1 ENE 15 22 1011.2 - 0.0 - - - - - - -
25/04:30pm 29.1 ENE 15 20 1011.0 - 0.0 - - - - - - -
25/04:00pm 30.0 ENE 14 20 1011.0 - 0.0 - - - - - - -
25/03:30pm 30.3 ENE 15 21 1011.0 - 0.0 - - - - - - -
25/03:00pm 30.4 ENE 16 22 1011.1 - 0.0 - - - - - - -
25/02:30pm 30.9 ENE 15 22 1011.4 - 0.0 - - - - - - -
25/02:00pm 31.7 ENE 15 22 1011.9 - 0.0 - - - - - - -
25/01:30pm 32.2 ENE 13 21 1012.2 - 0.0 - - - - - - -
25/01:00pm 32.3 ENE 14 22 1012.6 - 0.0 - - - - - - -
25/12:30pm 32.3 ENE 13 20 1013.0 - 0.0 - - - - - - -
25/12:00pm 33.2 ENE 12 18 1013.4 - 0.0 - - - - - - -
25/11:30am 31.4 ENE 13 17 1013.9 - 0.0 - - - - - - -
25/11:00am 31.2 E 14 21 1014.0 - 0.0 - - - - - - -
25/10:30am 31.5 E 10 15 1014.2 - 0.0 - - - - - - -
25/10:00am 29.8 E 11 18 1014.6 - 0.0 - - - - - - -
25/09:30am 29.6 ESE 10 17 1014.8 - 0.0 - - - - - - -
25/09:00am 28.6 SE 11 20 1014.8 - 0.0 - - - - - - -
25/08:30am 27.6 SE 12 19 1014.8 - 0.0 - - - - - - -
25/08:00am 26.2 SSE 11 17 1014.7 - 0.0 - - - - - - -
25/07:30am 24.6 SSE 10 16 1014.5 - 0.0 - - - - - - -
25/07:00am 23.8 SSE 7 13 1014.3 - 0.0 - - - - - - -
25/06:30am 23.0 SSE 8 13 1014.1 - 0.0 - - - - - - -
25/06:00am 22.7 SSE 8 13 1013.9 - 0.0 - - - - - - -
25/05:30am 22.7 SSE 7 12 1013.7 - 0.0 - - - - - - -
25/05:00am 22.9 S 8 11 1013.6 - 0.0 - - - - - - -
25/04:30am 23.0 S 8 12 1013.4 - 0.0 - - - - - - -

Other Formats:

Comma delimited format used in spreadsheet applications
http://www.bom.gov.au/fwo/IDQ60701/IDQ60701.94380.axf

JavaScript Object Notation format (JSON) in row-major order
http://www.bom.gov.au/fwo/IDQ60701/IDQ60701.94380.json